PH-0043 weather

SM Megamall Parking Building B Heliport
Mandaluyong, Philippines

Public forecast

Using degrees Celsius for public forecast. Weather courtesy of forecast.io.

Closest aviation weather report (METAR) to SM Megamall Parking Building B Heliport

Closest report is Ninoy Aquino International Airport, 4.9 nm (9.1 km) SSW. Retrieved 2019/11/12 09:00 UTC (54 minutes ago):

RPLL 120900Z 12004KT 060V170 9999 SCT023 BKN100 28/24 Q1009 NOSIG RMK A2980

Closest aviation forecast (TAF) to SM Megamall Parking Building B Heliport

Closest forecast is Ninoy Aquino International Airport, 4.9 nm (9.1 km) SSW. Retrieved 2019/11/12 06:00 UTC (4 hours ago):

TAF RPLL 120500Z 1206/1312 06006KT 9999 FEW023 BKN100 TX30/1206Z TN26/1221Z TEMPO 1206/1212 12010KT 8000 -SHRA FEW022CB SCT023 BKN090 TEMPO 1212/1218 08006KT SCT023 BKN090